createdAt,value
2023-05-10T00:00:17.411Z,12.12
2023-05-10T00:02:44.662Z,12.09
2023-05-10T00:05:11.224Z,12.15
2023-05-10T00:07:37.601Z,12.13
2023-05-10T00:10:04.341Z,12.11
2023-05-10T00:12:31.010Z,12.04
2023-05-10T00:14:57.525Z,12.07
2023-05-10T00:17:24.138Z,12.07
2023-05-10T00:19:50.670Z,12.01
2023-05-10T00:22:17.098Z,11.96
2023-05-10T00:24:43.875Z,11.98
2023-05-10T00:27:10.369Z,11.80
2023-05-10T00:29:36.787Z,11.88
2023-05-10T00:32:04.023Z,11.94
2023-05-10T00:34:31.408Z,11.94
2023-05-10T00:36:57.878Z,11.56
2023-05-10T00:39:24.367Z,11.90
2023-05-10T00:41:50.863Z,11.90
2023-05-10T00:44:19.332Z,11.84
2023-05-10T00:46:46.282Z,11.84
2023-05-10T00:49:13.987Z,11.81
2023-05-10T00:51:40.652Z,11.74
2023-05-10T00:54:07.629Z,11.74
2023-05-10T00:56:34.648Z,11.77
2023-05-10T00:59:01.513Z,11.70
2023-05-10T01:01:28.789Z,11.82
2023-05-10T01:03:56.161Z,11.84
2023-05-10T01:06:22.829Z,11.89
2023-05-10T01:08:49.364Z,11.82
2023-05-10T01:11:16.181Z,11.81
2023-05-10T01:13:44.218Z,11.80
2023-05-10T01:16:10.768Z,11.82
2023-05-10T01:18:40.253Z,11.80
2023-05-10T01:21:22.123Z,11.82
2023-05-10T01:24:27.593Z,11.86
2023-05-10T01:27:13.845Z,11.82
2023-05-10T01:30:13.660Z,11.89
2023-05-10T01:32:51.467Z,11.95
2023-05-10T01:35:27.603Z,11.92
2023-05-10T01:38:29.262Z,11.90
2023-05-10T01:41:20.842Z,11.97
2023-05-10T01:44:01.634Z,11.86
2023-05-10T01:46:36.222Z,11.87
2023-05-10T01:49:04.999Z,11.87
2023-05-10T01:51:45.742Z,11.90
2023-05-10T01:54:14.510Z,11.83
2023-05-10T01:56:44.784Z,11.88
2023-05-10T01:59:16.347Z,11.81
2023-05-10T02:01:44.242Z,11.82
2023-05-10T02:04:15.380Z,11.87
2023-05-10T02:06:44.180Z,11.77
2023-05-10T02:09:12.865Z,11.76
2023-05-10T02:11:42.485Z,11.77
2023-05-10T02:14:11.749Z,11.79
2023-05-10T02:16:39.922Z,11.72
2023-05-10T02:19:09.425Z,11.70
2023-05-10T02:21:38.294Z,11.58
2023-05-10T02:24:05.573Z,11.58
2023-05-10T02:26:35.686Z,11.50
2023-05-10T02:29:04.493Z,11.58
2023-05-10T02:31:34.535Z,11.58
2023-05-10T02:34:02.420Z,11.61
2023-05-10T02:36:29.636Z,11.64
2023-05-10T02:38:57.527Z,11.61
2023-05-10T02:41:27.204Z,11.61
2023-05-10T02:43:58.520Z,11.61
2023-05-10T02:46:25.096Z,11.63
2023-05-10T02:48:51.650Z,11.61
2023-05-10T02:51:20.005Z,11.55
2023-05-10T02:53:49.104Z,11.53
2023-05-10T02:56:25.970Z,11.57
2023-05-10T02:58:53.460Z,11.52
2023-05-10T03:01:19.940Z,11.55
2023-05-10T03:03:46.444Z,11.52
2023-05-10T03:06:12.994Z,11.19
2023-05-10T03:08:39.624Z,11.54
2023-05-10T03:11:25.198Z,11.57
2023-05-10T03:14:03.053Z,11.58
2023-05-10T03:16:37.924Z,11.56
2023-05-10T03:19:16.544Z,11.55
2023-05-10T03:21:48.327Z,11.52
2023-05-10T03:24:17.399Z,11.20
2023-05-10T03:26:46.723Z,11.51
2023-05-10T03:29:18.268Z,11.54
2023-05-10T03:31:45.355Z,11.53
2023-05-10T03:34:12.253Z,11.59
2023-05-10T03:36:38.820Z,11.50
2023-05-10T03:39:05.350Z,11.47
2023-05-10T03:41:31.798Z,11.38
2023-05-10T03:43:58.301Z,11.48
2023-05-10T03:46:24.901Z,11.45
2023-05-10T03:48:51.421Z,11.45
2023-05-10T03:51:18.563Z,11.45
2023-05-10T03:53:45.014Z,11.48
2023-05-10T03:56:11.814Z,11.46
2023-05-10T03:58:38.621Z,11.48
2023-05-10T04:01:05.053Z,11.52
2023-05-10T04:03:31.991Z,11.50
2023-05-10T04:06:02.821Z,11.52
2023-05-10T04:08:29.966Z,11.48
2023-05-10T04:11:09.556Z,11.48
2023-05-10T04:13:37.418Z,11.45
2023-05-10T04:16:04.414Z,11.48
2023-05-10T04:18:31.604Z,11.58
2023-05-10T04:20:58.333Z,11.59
2023-05-10T04:23:24.862Z,11.61
2023-05-10T04:25:51.254Z,11.43
2023-05-10T04:28:17.681Z,11.64
2023-05-10T04:30:44.150Z,11.66
2023-05-10T04:33:10.650Z,11.66
2023-05-10T04:35:37.138Z,11.70
2023-05-10T04:38:03.607Z,11.73
2023-05-10T04:40:30.125Z,11.63
2023-05-10T04:42:56.563Z,11.73
2023-05-10T04:45:23.227Z,11.67
2023-05-10T04:47:49.650Z,11.70
2023-05-10T04:50:16.569Z,11.73
2023-05-10T04:52:43.283Z,11.73
2023-05-10T04:55:10.809Z,11.73
2023-05-10T04:57:37.228Z,11.74
2023-05-10T05:00:04.502Z,11.64
2023-05-10T05:02:32.208Z,11.84
2023-05-10T05:04:58.833Z,11.89
2023-05-10T05:07:26.539Z,11.88
2023-05-10T05:09:52.962Z,11.94
2023-05-10T05:12:19.906Z,11.96
2023-05-10T05:14:46.381Z,11.99
2023-05-10T05:17:12.782Z,12.01
2023-05-10T05:19:40.000Z,11.97
2023-05-10T05:22:08.503Z,11.99
2023-05-10T05:24:41.173Z,11.95
2023-05-10T05:27:07.877Z,11.98
2023-05-10T05:29:34.973Z,11.97
2023-05-10T05:32:01.498Z,11.98
2023-05-10T05:34:29.614Z,11.94
2023-05-10T05:36:56.323Z,11.89
2023-05-10T05:39:23.286Z,11.95
2023-05-10T05:41:49.753Z,11.85
2023-05-10T05:44:16.198Z,11.84
2023-05-10T05:46:42.636Z,11.88
2023-05-10T05:49:09.125Z,11.88
2023-05-10T05:51:36.577Z,11.88
2023-05-10T05:54:05.135Z,11.97
2023-05-10T05:56:31.561Z,12.03
2023-05-10T05:58:58.469Z,12.08
2023-05-10T06:01:24.888Z,12.02
2023-05-10T06:03:53.304Z,12.04
2023-05-10T06:06:21.608Z,12.04
2023-05-10T06:08:47.998Z,11.64
2023-05-10T06:11:14.480Z,12.12
2023-05-10T06:13:41.235Z,12.18
2023-05-10T06:16:08.018Z,12.18
2023-05-10T06:18:36.445Z,12.18
2023-05-10T06:21:03.309Z,12.16
2023-05-10T06:23:29.792Z,12.47
2023-05-10T06:25:56.298Z,13.11
2023-05-10T06:28:22.755Z,13.90
2023-05-10T06:30:49.247Z,14.51
2023-05-10T06:33:17.522Z,15.14
2023-05-10T06:35:44.039Z,15.82
2023-05-10T06:38:10.702Z,16.38
2023-05-10T06:40:37.208Z,16.92
2023-05-10T06:43:03.674Z,17.18
2023-05-10T06:45:30.099Z,17.55
2023-05-10T06:47:56.840Z,17.81
2023-05-10T06:50:23.484Z,17.97
2023-05-10T06:52:51.167Z,18.40
2023-05-10T06:55:19.713Z,18.28
2023-05-10T06:57:46.237Z,18.19
2023-05-10T07:00:13.070Z,17.65
2023-05-10T07:02:39.613Z,17.30
2023-05-10T07:05:06.519Z,16.96
2023-05-10T07:07:33.011Z,16.54
2023-05-10T07:09:59.573Z,16.27
2023-05-10T07:12:26.922Z,15.99
2023-05-10T07:14:53.430Z,15.62
2023-05-10T07:17:20.191Z,15.49
2023-05-10T07:19:46.624Z,15.27
2023-05-10T07:22:13.178Z,14.96
2023-05-10T07:24:39.707Z,14.76
2023-05-10T07:27:06.489Z,14.53
2023-05-10T07:29:33.357Z,14.46
2023-05-10T07:31:59.961Z,14.37
2023-05-10T07:34:26.511Z,14.23
2023-05-10T07:36:53.595Z,13.95
2023-05-10T07:39:27.258Z,13.85
2023-05-10T07:41:55.580Z,13.93
2023-05-10T07:44:22.135Z,14.21
2023-05-10T07:46:49.445Z,14.22
2023-05-10T07:49:16.273Z,14.45
2023-05-10T07:51:43.508Z,14.73
2023-05-10T07:54:10.009Z,14.71
2023-05-10T07:56:36.436Z,14.94
2023-05-10T07:59:08.816Z,15.08
2023-05-10T08:01:36.190Z,15.16
2023-05-10T08:04:03.124Z,15.23
2023-05-10T08:06:30.779Z,15.21
2023-05-10T08:08:57.210Z,15.41
2023-05-10T08:11:24.115Z,15.67
2023-05-10T08:13:51.790Z,15.87
2023-05-10T08:16:18.687Z,15.95
2023-05-10T08:18:47.694Z,16.11
2023-05-10T08:21:15.250Z,16.23
2023-05-10T08:23:41.979Z,16.16
2023-05-10T08:26:08.424Z,16.13
2023-05-10T08:28:34.920Z,15.77
2023-05-10T08:31:01.384Z,15.35
2023-05-10T08:33:27.862Z,15.11
2023-05-10T08:35:54.287Z,14.88
2023-05-10T08:38:20.780Z,14.92
2023-05-10T08:40:50.302Z,15.25
2023-05-10T08:43:16.961Z,15.16
2023-05-10T08:45:48.828Z,14.95
2023-05-10T08:48:16.171Z,15.08
2023-05-10T08:50:44.038Z,15.34
2023-05-10T08:53:12.537Z,15.31
2023-05-10T08:55:39.810Z,15.68
2023-05-10T08:58:07.432Z,15.82
2023-05-10T09:00:34.691Z,15.95
2023-05-10T09:03:02.204Z,15.80
2023-05-10T09:05:29.153Z,15.66
2023-05-10T09:07:55.739Z,15.26
2023-05-10T09:10:23.066Z,14.86
2023-05-10T09:12:50.326Z,14.54
2023-05-10T09:15:20.184Z,14.48
2023-05-10T09:17:48.177Z,14.15
2023-05-10T09:20:14.810Z,14.07
2023-05-10T09:22:41.521Z,14.15
2023-05-10T09:25:15.720Z,13.97
2023-05-10T09:27:46.159Z,14.04
2023-05-10T09:30:18.185Z,14.19
2023-05-10T09:32:47.010Z,14.30
2023-05-10T09:35:16.258Z,14.59
2023-05-10T09:37:45.571Z,14.84
2023-05-10T09:40:20.524Z,15.34
2023-05-10T09:43:01.613Z,15.90
2023-05-10T09:45:32.740Z,15.61
2023-05-10T09:48:01.488Z,16.11
2023-05-10T09:50:28.350Z,15.88
2023-05-10T09:53:03.995Z,15.75
2023-05-10T09:55:39.881Z,15.65
2023-05-10T09:58:10.397Z,15.40
2023-05-10T10:00:38.823Z,15.02
2023-05-10T10:03:06.396Z,14.85
2023-05-10T10:05:35.276Z,14.68
2023-05-10T10:08:05.604Z,14.60
2023-05-10T10:10:33.222Z,14.51
2023-05-10T10:13:00.790Z,14.35
2023-05-10T10:15:27.314Z,14.39
2023-05-10T10:17:54.602Z,14.51
2023-05-10T10:20:23.362Z,14.53
2023-05-10T10:22:50.168Z,14.52
2023-05-10T10:25:18.382Z,14.63
2023-05-10T10:27:54.143Z,14.76
2023-05-10T10:30:32.597Z,14.68
2023-05-10T10:33:35.009Z,14.66
2023-05-10T10:36:04.089Z,15.01
2023-05-10T10:39:00.588Z,15.49
2023-05-10T10:41:36.977Z,16.04
2023-05-10T10:44:38.794Z,16.33
2023-05-10T10:47:12.549Z,16.28
2023-05-10T10:49:48.994Z,15.87
2023-05-10T10:52:16.314Z,15.86
2023-05-10T10:54:51.147Z,15.51
2023-05-10T10:57:19.817Z,15.98
2023-05-10T10:59:47.166Z,16.18
2023-05-10T11:02:43.963Z,16.53
2023-05-10T11:05:28.689Z,16.46
2023-05-10T11:07:57.313Z,16.79
2023-05-10T11:10:25.361Z,16.62
2023-05-10T11:13:04.188Z,16.40
2023-05-10T11:15:35.694Z,16.39
2023-05-10T11:18:31.211Z,16.37
2023-05-10T11:21:10.201Z,16.16
2023-05-10T11:24:19.484Z,16.25
2023-05-10T11:26:46.088Z,16.20
2023-05-10T11:29:14.683Z,15.96
2023-05-10T11:31:48.592Z,15.98
2023-05-10T11:34:32.105Z,15.78
2023-05-10T11:36:58.877Z,15.73
2023-05-10T11:39:32.558Z,15.86
2023-05-10T11:41:59.565Z,15.66
2023-05-10T11:44:32.944Z,15.53
2023-05-10T11:47:01.145Z,15.74
2023-05-10T11:49:27.746Z,15.69
2023-05-10T11:51:54.157Z,15.58
2023-05-10T11:54:20.691Z,15.33
2023-05-10T11:56:47.148Z,15.60
2023-05-10T11:59:15.711Z,15.65
2023-05-10T12:01:42.612Z,15.78
2023-05-10T12:04:09.443Z,16.07
2023-05-10T12:06:41.516Z,16.32
2023-05-10T12:09:09.099Z,16.40
2023-05-10T12:11:43.583Z,16.48
2023-05-10T12:14:11.420Z,16.36
2023-05-10T12:16:37.907Z,16.37
2023-05-10T12:19:04.613Z,16.18
2023-05-10T12:21:31.679Z,16.02
2023-05-10T12:24:04.275Z,16.19
2023-05-10T12:26:31.369Z,15.98
2023-05-10T12:29:18.541Z,16.43
2023-05-10T12:31:56.040Z,16.19
2023-05-10T12:34:36.229Z,16.01
2023-05-10T12:37:05.497Z,16.17
2023-05-10T12:51:53.525Z,16.98
2023-05-10T12:54:19.992Z,16.98
2023-05-10T12:56:46.381Z,16.80
2023-05-10T12:59:12.829Z,16.75
2023-05-10T13:01:39.533Z,16.71
2023-05-10T13:04:06.328Z,16.84
2023-05-10T13:06:33.010Z,16.36
2023-05-10T13:08:59.549Z,16.45
2023-05-10T13:11:26.074Z,16.33
2023-05-10T13:13:52.859Z,16.04
2023-05-10T13:16:19.413Z,15.80
2023-05-10T13:18:45.958Z,16.23
2023-05-10T13:21:12.564Z,16.51
2023-05-10T13:23:39.123Z,16.52
2023-05-10T13:26:05.624Z,16.66
2023-05-10T13:28:32.138Z,16.68
2023-05-10T13:30:58.672Z,16.29
2023-05-10T13:33:25.419Z,16.40
2023-05-10T13:35:53.710Z,16.59
2023-05-10T13:38:22.493Z,16.53
2023-05-10T13:40:49.144Z,16.57
2023-05-10T13:43:16.222Z,16.39
2023-05-10T13:45:42.692Z,16.42
2023-05-10T13:48:09.277Z,16.42
2023-05-10T13:50:35.774Z,16.94
2023-05-10T13:53:02.441Z,17.20
2023-05-10T13:55:29.641Z,17.28
2023-05-10T13:57:56.094Z,17.51
2023-05-10T14:00:22.735Z,17.64
2023-05-10T14:02:49.392Z,17.41
2023-05-10T14:05:16.992Z,17.16
2023-05-10T14:07:44.690Z,17.11
2023-05-10T14:10:11.239Z,17.26
2023-05-10T14:12:37.860Z,17.27
2023-05-10T14:15:06.737Z,17.35
2023-05-10T14:17:33.237Z,17.32
2023-05-10T14:19:59.776Z,17.45
2023-05-10T14:22:26.369Z,17.46
2023-05-10T14:24:52.804Z,17.48
2023-05-10T14:27:19.534Z,17.38
2023-05-10T14:29:46.184Z,17.65
2023-05-10T14:32:12.753Z,17.86
2023-05-10T14:34:39.358Z,17.84
2023-05-10T14:37:05.870Z,17.65
2023-05-10T14:39:32.485Z,17.55
2023-05-10T14:41:59.483Z,17.76
2023-05-10T14:44:25.981Z,17.97
2023-05-10T14:46:52.752Z,18.09
2023-05-10T14:49:19.200Z,18.31
2023-05-10T14:51:46.533Z,18.42
2023-05-10T14:54:12.940Z,18.35
2023-05-10T14:56:39.475Z,18.17
2023-05-10T14:59:05.949Z,18.32
2023-05-10T15:01:33.912Z,18.23
2023-05-10T15:04:01.080Z,17.86
2023-05-10T15:06:32.753Z,17.93
2023-05-10T15:08:59.226Z,17.57
2023-05-10T15:11:25.623Z,17.55
2023-05-10T15:13:52.211Z,17.30
2023-05-10T15:16:20.434Z,17.33
2023-05-10T15:18:46.901Z,17.03
2023-05-10T15:21:13.613Z,17.19
2023-05-10T15:23:41.213Z,17.21
2023-05-10T15:26:07.701Z,17.08
2023-05-10T15:28:34.539Z,16.95
2023-05-10T15:31:01.366Z,16.94
2023-05-10T15:33:28.413Z,16.99
2023-05-10T15:35:55.175Z,17.12
2023-05-10T15:38:21.806Z,17.14
2023-05-10T15:40:48.202Z,17.01
2023-05-10T15:43:15.010Z,17.06
2023-05-10T15:45:41.546Z,17.03
2023-05-10T15:48:08.017Z,17.30
2023-05-10T15:50:34.612Z,17.24
2023-05-10T15:53:00.991Z,17.17
2023-05-10T15:55:27.637Z,16.74
2023-05-10T15:57:54.114Z,16.63
2023-05-10T16:00:20.980Z,16.49
2023-05-10T16:02:47.475Z,16.61
2023-05-10T16:05:14.250Z,16.66
2023-05-10T16:07:41.946Z,16.68
2023-05-10T16:10:10.537Z,16.71
2023-05-10T16:12:37.171Z,16.58
2023-05-10T16:15:04.218Z,16.72
2023-05-10T16:17:32.818Z,16.80
2023-05-10T16:19:59.489Z,16.77
2023-05-10T16:22:27.281Z,16.74
2023-05-10T16:24:53.890Z,16.71
2023-05-10T16:27:20.689Z,16.61
2023-05-10T16:29:48.112Z,16.70
2023-05-10T16:32:14.558Z,16.74
2023-05-10T16:34:41.302Z,16.62
2023-05-10T16:37:07.844Z,16.51
2023-05-10T16:39:34.236Z,16.55
2023-05-10T16:42:01.064Z,16.60
2023-05-10T16:44:27.516Z,16.61
2023-05-10T16:46:54.936Z,16.59
2023-05-10T16:49:22.703Z,16.70
2023-05-10T16:51:50.117Z,16.70
2023-05-10T16:54:17.210Z,16.72
2023-05-10T16:56:43.736Z,16.82
2023-05-10T16:59:10.122Z,16.77
2023-05-10T17:01:36.556Z,16.82
2023-05-10T17:04:03.218Z,16.73
2023-05-10T17:06:29.668Z,16.89
2023-05-10T17:08:56.048Z,16.83
2023-05-10T17:11:22.545Z,16.83
2023-05-10T17:13:49.049Z,16.42
2023-05-10T17:16:15.726Z,16.27
2023-05-10T17:18:42.556Z,16.10
2023-05-10T17:21:09.519Z,15.95
2023-05-10T17:23:35.992Z,15.84
2023-05-10T17:26:04.892Z,15.92
2023-05-10T17:28:31.384Z,15.82
2023-05-10T17:30:58.278Z,15.73
2023-05-10T17:33:24.805Z,15.32
2023-05-10T17:35:51.524Z,15.89
2023-05-10T17:38:18.000Z,15.88
2023-05-10T17:40:44.517Z,15.82
2023-05-10T17:43:10.928Z,15.79
2023-05-10T17:45:37.449Z,15.61
2023-05-10T17:48:04.302Z,15.55
2023-05-10T17:50:32.559Z,15.45
2023-05-10T17:52:59.038Z,15.35
2023-05-10T17:55:27.017Z,15.48
2023-05-10T17:57:53.646Z,15.51
2023-05-10T18:00:20.276Z,15.37
2023-05-10T18:02:46.760Z,15.34
2023-05-10T18:05:13.441Z,15.29
2023-05-10T18:19:49.154Z,15.65
2023-05-10T18:22:15.657Z,15.72
2023-05-10T18:24:42.126Z,15.72
2023-05-10T18:27:09.232Z,15.41
2023-05-10T18:29:36.754Z,15.52
2023-05-10T18:32:03.350Z,15.38
2023-05-10T18:34:29.826Z,15.36
2023-05-10T18:36:56.604Z,15.30
2023-05-10T18:39:24.231Z,15.05
2023-05-10T18:41:50.878Z,15.08
2023-05-10T18:44:18.757Z,15.04
2023-05-10T18:46:45.313Z,14.63
2023-05-10T18:49:11.846Z,14.48
2023-05-10T18:51:38.252Z,14.53
2023-05-10T18:54:04.725Z,14.12
2023-05-10T18:56:31.427Z,14.15
2023-05-10T18:58:58.041Z,14.03
2023-05-10T19:01:24.567Z,13.86
2023-05-10T19:03:51.044Z,13.78
2023-05-10T19:06:17.475Z,13.50
2023-05-10T19:08:43.896Z,12.78
2023-05-10T19:11:10.456Z,13.01
2023-05-10T19:13:37.039Z,12.88
2023-05-10T19:16:05.211Z,13.03
2023-05-10T19:18:33.215Z,12.94
2023-05-10T19:21:03.554Z,12.97
2023-05-10T19:23:33.189Z,13.06
2023-05-10T19:26:00.257Z,13.16
2023-05-10T19:28:27.044Z,13.07
2023-05-10T19:30:53.691Z,13.09
2023-05-10T19:33:20.296Z,12.98
2023-05-10T19:35:46.795Z,12.97
2023-05-10T19:38:13.288Z,12.93
2023-05-10T19:40:39.824Z,12.72
2023-05-10T19:43:06.286Z,12.86
2023-05-10T19:45:33.994Z,12.70
2023-05-10T19:48:01.282Z,12.43
2023-05-10T19:50:27.738Z,12.65
2023-05-10T19:52:54.258Z,12.48
2023-05-10T19:55:29.380Z,12.58
2023-05-10T19:57:56.366Z,12.38
2023-05-10T20:00:24.972Z,12.02
2023-05-10T20:02:51.578Z,12.05
2023-05-10T20:05:18.394Z,11.73
2023-05-10T20:07:45.331Z,11.42
2023-05-10T20:10:11.972Z,11.64
2023-05-10T20:12:38.462Z,11.72
2023-05-10T20:15:07.420Z,11.72
2023-05-10T20:17:35.295Z,11.65
2023-05-10T20:20:01.815Z,11.42
2023-05-10T20:22:28.296Z,11.63
2023-05-10T20:24:56.214Z,11.60
2023-05-10T20:27:23.318Z,11.52
2023-05-10T20:29:49.825Z,11.46
2023-05-10T20:32:16.309Z,11.46
2023-05-10T20:34:42.803Z,11.24
2023-05-10T20:37:09.317Z,11.16
2023-05-10T20:39:35.837Z,11.20
2023-05-10T20:42:02.365Z,11.29
2023-05-10T20:44:28.804Z,11.26
2023-05-10T20:46:55.351Z,11.20
2023-05-10T20:49:21.854Z,10.98
2023-05-10T20:51:48.319Z,10.98
2023-05-10T20:54:14.741Z,11.04
2023-05-10T20:56:41.566Z,10.98
2023-05-10T20:59:07.983Z,10.95
2023-05-10T21:01:34.443Z,10.93
2023-05-10T21:04:00.930Z,10.83
2023-05-10T21:06:27.386Z,10.86
2023-05-10T21:08:53.817Z,10.68
2023-05-10T21:11:20.779Z,10.54
2023-05-10T21:13:47.193Z,10.63
2023-05-10T21:16:13.708Z,10.61
2023-05-10T21:18:40.305Z,10.54
2023-05-10T21:21:06.823Z,10.48
2023-05-10T21:23:34.400Z,10.44
2023-05-10T21:26:03.539Z,10.13
2023-05-10T21:28:30.071Z,10.08
2023-05-10T21:30:56.702Z,9.99
2023-05-10T21:33:23.722Z,9.83
2023-05-10T21:35:50.411Z,9.64
2023-05-10T21:38:16.881Z,9.58
2023-05-10T21:40:43.370Z,9.76
2023-05-10T21:43:11.190Z,9.74
2023-05-10T21:45:38.066Z,9.89
2023-05-10T21:48:04.688Z,10.00
2023-05-10T21:50:31.225Z,9.82
2023-05-10T21:52:57.908Z,9.86
2023-05-10T21:55:24.482Z,9.98
2023-05-10T21:57:51.058Z,10.00
2023-05-10T22:00:19.211Z,9.80
2023-05-10T22:02:46.538Z,9.95
2023-05-10T22:05:13.487Z,9.93
2023-05-10T22:07:40.094Z,9.89
2023-05-10T22:10:08.562Z,9.66
2023-05-10T22:12:35.196Z,9.51
2023-05-10T22:15:10.286Z,9.23
2023-05-10T22:17:39.374Z,8.81
2023-05-10T22:20:09.466Z,8.94
2023-05-10T22:22:36.677Z,9.11
2023-05-10T22:25:04.420Z,9.23
2023-05-10T22:27:30.794Z,9.19
2023-05-10T22:29:58.170Z,9.13
2023-05-10T22:32:24.777Z,8.90
2023-05-10T22:34:51.443Z,9.26
2023-05-10T22:37:18.014Z,9.36
2023-05-10T22:39:48.115Z,9.19
2023-05-10T22:42:14.499Z,9.26
2023-05-10T22:44:41.133Z,9.12
2023-05-10T22:47:08.951Z,9.20
2023-05-10T22:49:35.522Z,9.19
2023-05-10T22:52:01.911Z,9.27
2023-05-10T22:54:28.397Z,9.23
2023-05-10T22:56:56.402Z,9.31
2023-05-10T22:59:23.212Z,9.03
2023-05-10T23:01:49.743Z,8.87
2023-05-10T23:04:16.190Z,8.86
2023-05-10T23:06:42.637Z,8.94
2023-05-10T23:09:09.814Z,9.01
2023-05-10T23:11:36.484Z,8.83
2023-05-10T23:14:03.250Z,8.71
2023-05-10T23:16:30.591Z,8.53
2023-05-10T23:18:57.363Z,8.38
2023-05-10T23:21:25.128Z,8.19
2023-05-10T23:23:52.437Z,8.31
2023-05-10T23:26:18.956Z,8.35
2023-05-10T23:28:45.368Z,8.54
2023-05-10T23:31:11.872Z,8.52
2023-05-10T23:33:38.317Z,8.58
2023-05-10T23:36:04.998Z,8.66
2023-05-10T23:38:31.587Z,8.74
2023-05-10T23:40:58.003Z,8.71
2023-05-10T23:43:25.263Z,8.72
2023-05-10T23:45:57.022Z,8.80
2023-05-10T23:48:24.121Z,8.77
2023-05-10T23:50:50.678Z,8.72
2023-05-10T23:53:17.222Z,8.62
2023-05-10T23:55:43.994Z,8.53
2023-05-10T23:58:10.626Z,8.62
